createdAt,value
2022-11-18T00:00:23.104Z,2.10
2022-11-18T00:03:10.347Z,2.13
2022-11-18T00:05:57.376Z,2.15
2022-11-18T00:08:44.243Z,2.16
2022-11-18T00:11:49.923Z,2.15
2022-11-18T00:14:36.716Z,2.11
2022-11-18T00:17:23.347Z,2.08
2022-11-18T00:20:10.709Z,2.05
2022-11-18T00:22:57.331Z,2.02
2022-11-18T00:25:43.878Z,2.05
2022-11-18T00:28:31.500Z,2.07
2022-11-18T00:31:18.012Z,2.07
2022-11-18T00:34:05.231Z,2.06
2022-11-18T00:36:51.915Z,2.05
2022-11-18T00:39:38.852Z,1.99
2022-11-18T00:42:44.616Z,1.93
2022-11-18T00:45:31.411Z,1.86
2022-11-18T00:48:22.125Z,1.85
2022-11-18T00:51:13.643Z,1.85
2022-11-18T00:54:00.363Z,1.85
2022-11-18T00:56:46.975Z,1.83
2022-11-18T00:59:33.762Z,1.83
2022-11-18T01:02:22.114Z,1.80
2022-11-18T01:05:09.373Z,1.74
2022-11-18T01:07:56.243Z,1.72
2022-11-18T01:10:42.878Z,1.67
2022-11-18T01:13:31.300Z,1.67
2022-11-18T01:16:25.485Z,1.68
2022-11-18T01:19:12.009Z,1.69
2022-11-18T01:22:03.146Z,1.73
2022-11-18T01:24:49.801Z,1.75
2022-11-18T01:27:36.511Z,1.75
2022-11-18T01:30:23.529Z,1.72
2022-11-18T01:33:10.439Z,1.67
2022-11-18T01:35:57.358Z,1.60
2022-11-18T01:38:44.162Z,1.59
2022-11-18T01:41:30.973Z,1.62
2022-11-18T01:44:55.758Z,1.64
2022-11-18T01:47:52.829Z,1.66
2022-11-18T01:50:41.898Z,1.62
2022-11-18T01:53:34.025Z,1.58
2022-11-18T01:56:25.290Z,1.53
2022-11-18T01:59:13.682Z,1.50
2022-11-18T02:02:00.965Z,1.46
2022-11-18T02:04:48.535Z,1.49
2022-11-18T02:07:37.693Z,1.55
2022-11-18T02:10:25.330Z,1.58
2022-11-18T02:13:12.143Z,1.58
2022-11-18T02:16:20.584Z,1.57
2022-11-18T02:19:19.629Z,1.56
2022-11-18T02:22:31.070Z,1.50
2022-11-18T02:25:51.749Z,1.46
2022-11-18T02:28:59.150Z,1.39
2022-11-18T02:31:47.694Z,1.38
2022-11-18T02:34:49.045Z,1.37
2022-11-18T02:37:49.386Z,1.38
2022-11-18T02:40:38.300Z,1.38
2022-11-18T02:43:28.285Z,1.35
2022-11-18T02:46:21.172Z,1.34
2022-11-18T02:49:14.951Z,1.30
2022-11-18T02:52:01.857Z,1.26
2022-11-18T02:54:48.366Z,1.20
2022-11-18T02:57:35.677Z,1.21
2022-11-18T03:00:22.393Z,1.24
2022-11-18T03:03:26.355Z,1.25
2022-11-18T03:06:31.290Z,1.29
2022-11-18T03:09:19.340Z,1.29
2022-11-18T03:12:24.292Z,1.28
2022-11-18T03:15:36.931Z,1.26
2022-11-18T03:18:42.380Z,1.21
2022-11-18T03:21:33.798Z,1.14
2022-11-18T03:24:30.385Z,1.10
2022-11-18T03:27:22.881Z,1.05
2022-11-18T03:30:11.462Z,1.04
2022-11-18T03:33:01.691Z,1.08
2022-11-18T03:35:49.458Z,1.10
2022-11-18T03:38:38.659Z,1.11
2022-11-18T03:41:25.590Z,1.11
2022-11-18T03:44:14.907Z,1.11
2022-11-18T03:47:05.675Z,1.09
2022-11-18T03:50:22.659Z,1.05
2022-11-18T03:53:09.745Z,1.01
2022-11-18T03:56:00.756Z,1.02
2022-11-18T03:58:52.204Z,1.00
2022-11-18T04:01:46.607Z,0.98
2022-11-18T04:04:33.054Z,1.03
2022-11-18T04:07:27.980Z,1.07
2022-11-18T04:10:36.787Z,1.12
2022-11-18T04:13:43.878Z,1.14
2022-11-18T04:16:30.788Z,1.15
2022-11-18T04:19:17.695Z,1.14
2022-11-18T04:22:04.412Z,1.14
2022-11-18T04:24:51.114Z,1.11
2022-11-18T04:27:37.927Z,1.08
2022-11-18T04:30:24.737Z,1.04
2022-11-18T04:33:11.256Z,1.03
2022-11-18T04:35:58.151Z,1.05
2022-11-18T04:38:45.048Z,1.09
2022-11-18T04:41:49.999Z,1.10
2022-11-18T04:44:36.708Z,1.04
2022-11-18T04:47:22.970Z,1.01
2022-11-18T04:50:10.026Z,0.96
2022-11-18T04:52:56.591Z,0.94
2022-11-18T04:55:43.231Z,0.93
2022-11-18T04:58:29.980Z,0.89
2022-11-18T05:01:16.774Z,0.86
2022-11-18T05:04:04.946Z,0.86
2022-11-18T05:06:51.816Z,0.90
2022-11-18T05:09:38.409Z,0.90
2022-11-18T05:12:43.653Z,0.90
2022-11-18T05:15:30.666Z,0.87
2022-11-18T05:18:17.176Z,0.82
2022-11-18T05:21:07.158Z,0.77
2022-11-18T05:23:53.969Z,0.74
2022-11-18T05:26:40.574Z,0.71
2022-11-18T05:29:26.950Z,0.69
2022-11-18T05:32:13.788Z,0.68
2022-11-18T05:35:00.555Z,0.72
2022-11-18T05:37:47.301Z,0.70
2022-11-18T05:40:34.010Z,0.72
2022-11-18T05:43:20.924Z,0.69
2022-11-18T05:46:07.839Z,0.65
2022-11-18T05:48:54.445Z,0.55
2022-11-18T05:51:41.567Z,0.49
2022-11-18T05:54:28.268Z,0.47
2022-11-18T05:57:14.953Z,0.45
2022-11-18T06:00:03.836Z,0.48
2022-11-18T06:02:50.814Z,0.53
2022-11-18T06:05:37.252Z,0.54
2022-11-18T06:08:25.292Z,0.48
2022-11-18T06:11:12.918Z,0.43
2022-11-18T06:14:23.082Z,0.37
2022-11-18T06:17:12.349Z,0.28
2022-11-18T06:19:59.262Z,0.23
2022-11-18T06:22:46.913Z,0.22
2022-11-18T06:25:34.006Z,0.23
2022-11-18T06:28:20.793Z,0.28
2022-11-18T06:31:07.830Z,0.26
2022-11-18T06:33:54.410Z,0.23
2022-11-18T06:36:41.300Z,0.21
2022-11-18T06:39:28.173Z,0.19
2022-11-18T06:42:34.736Z,0.15
2022-11-18T06:45:21.430Z,0.15
2022-11-18T06:48:08.050Z,0.20
2022-11-18T06:50:54.860Z,0.23
2022-11-18T06:53:41.568Z,0.22
2022-11-18T06:56:28.290Z,0.19
2022-11-18T06:59:15.415Z,0.17
2022-11-18T07:02:02.823Z,0.13
2022-11-18T07:04:49.527Z,0.10
2022-11-18T07:07:40.480Z,0.09
2022-11-18T07:10:28.780Z,0.06
2022-11-18T07:13:15.487Z,0.11
2022-11-18T07:16:25.607Z,0.14
2022-11-18T07:19:13.272Z,0.15
2022-11-18T07:22:00.392Z,0.15
2022-11-18T07:24:47.103Z,0.13
2022-11-18T07:27:33.817Z,0.06
2022-11-18T07:30:22.052Z,0.04
2022-11-18T07:33:08.556Z,0.00
2022-11-18T07:35:55.371Z,-0.02
2022-11-18T07:38:42.377Z,0.02
2022-11-18T07:41:30.216Z,0.04
2022-11-18T07:44:17.644Z,0.05
2022-11-18T07:47:04.557Z,0.03
2022-11-18T07:49:51.468Z,0.03
2022-11-18T07:52:38.175Z,-0.00
2022-11-18T07:55:30.831Z,-0.04
2022-11-18T07:58:18.746Z,-0.03
2022-11-18T08:01:16.430Z,-0.05
2022-11-18T08:04:08.078Z,-0.06
2022-11-18T08:06:54.614Z,-0.03
2022-11-18T08:09:41.262Z,0.02
2022-11-18T08:12:30.841Z,0.05
2022-11-18T08:15:17.442Z,0.05
2022-11-18T08:18:04.158Z,0.07
2022-11-18T08:20:50.860Z,0.03
2022-11-18T08:23:41.726Z,-0.03
2022-11-18T08:26:29.709Z,-0.03
2022-11-18T08:29:20.363Z,0.03
2022-11-18T08:32:10.599Z,0.07
2022-11-18T08:34:56.994Z,0.11
2022-11-18T08:37:44.013Z,0.19
2022-11-18T08:40:30.635Z,0.21
2022-11-18T08:43:17.392Z,0.20
2022-11-18T08:46:04.232Z,0.14
2022-11-18T08:48:50.712Z,0.10
2022-11-18T08:51:37.897Z,0.04
2022-11-18T08:54:24.260Z,0.05
2022-11-18T08:57:11.069Z,0.07
2022-11-18T08:59:57.991Z,0.07
2022-11-18T09:02:44.996Z,0.07
2022-11-18T09:05:31.336Z,0.07
2022-11-18T09:08:17.799Z,0.04
2022-11-18T09:11:08.603Z,-0.01
2022-11-18T09:17:02.910Z,0.03
2022-11-18T09:20:10.245Z,0.02
2022-11-18T09:22:56.969Z,-0.01
2022-11-18T09:25:44.134Z,0.03
2022-11-18T09:28:31.037Z,0.06
2022-11-18T09:31:17.875Z,0.04
2022-11-18T09:34:05.299Z,0.02
2022-11-18T09:36:55.994Z,0.07
2022-11-18T09:39:42.686Z,0.13
2022-11-18T09:42:51.409Z,0.11
2022-11-18T09:45:38.742Z,0.11
2022-11-18T09:48:45.413Z,0.05
2022-11-18T09:51:33.654Z,0.08
2022-11-18T09:54:28.581Z,0.05
2022-11-18T09:57:23.050Z,0.07
2022-11-18T10:00:17.825Z,0.07
2022-11-18T10:03:12.568Z,0.04
2022-11-18T10:06:24.740Z,-0.01
2022-11-18T10:09:17.388Z,-0.03
2022-11-18T10:12:09.729Z,-0.07
2022-11-18T10:15:15.906Z,-0.11
2022-11-18T10:18:45.446Z,-0.09
2022-11-18T10:21:42.486Z,-0.06
2022-11-18T10:24:33.570Z,-0.08
2022-11-18T10:27:20.285Z,-0.02
2022-11-18T10:30:18.742Z,0.01
2022-11-18T10:33:25.026Z,0.05
2022-11-18T10:36:28.031Z,0.11
2022-11-18T10:39:15.338Z,0.19
2022-11-18T10:42:10.879Z,0.22
2022-11-18T10:45:19.274Z,0.23
2022-11-18T10:48:14.973Z,0.19
2022-11-18T10:51:01.323Z,0.17
2022-11-18T10:53:48.104Z,0.17
2022-11-18T10:57:14.642Z,0.17
2022-11-18T11:00:01.831Z,0.23
2022-11-18T11:02:48.564Z,0.26
2022-11-18T11:05:35.494Z,0.30
2022-11-18T11:08:37.092Z,0.37
2022-11-18T11:11:35.921Z,0.39
2022-11-18T11:14:24.174Z,0.38
2022-11-18T11:17:15.149Z,0.37
2022-11-18T11:20:06.600Z,0.36
2022-11-18T11:22:54.743Z,0.35
2022-11-18T11:29:09.636Z,0.29
2022-11-18T11:32:22.247Z,0.29
2022-11-18T11:35:23.913Z,0.31
2022-11-18T11:38:19.833Z,0.32
2022-11-18T11:41:18.627Z,0.39
2022-11-18T11:44:11.171Z,0.35
2022-11-18T11:47:38.940Z,0.34
2022-11-18T11:50:59.972Z,0.34
2022-11-18T11:53:57.513Z,0.24
2022-11-18T11:57:25.895Z,0.24
2022-11-18T12:00:14.395Z,0.20
2022-11-18T12:03:04.722Z,0.17
2022-11-18T12:05:51.496Z,0.13
2022-11-18T12:08:38.767Z,0.14
2022-11-18T12:11:37.874Z,0.12
2022-11-18T12:14:46.186Z,0.10
2022-11-18T12:17:37.408Z,0.13
2022-11-18T12:20:47.276Z,0.13
2022-11-18T12:23:34.685Z,0.14
2022-11-18T12:26:36.231Z,0.13
2022-11-18T12:29:24.536Z,0.13
2022-11-18T12:32:29.487Z,0.09
2022-11-18T12:35:16.225Z,0.04
2022-11-18T12:38:03.082Z,0.00
2022-11-18T12:40:53.041Z,-0.05
2022-11-18T12:43:50.888Z,-0.07
2022-11-18T12:46:40.163Z,-0.08
2022-11-18T12:49:30.958Z,-0.07
2022-11-18T12:52:30.148Z,-0.02
2022-11-18T12:55:30.896Z,0.06
2022-11-18T12:58:28.357Z,0.07
2022-11-18T13:01:21.172Z,0.08
2022-11-18T13:04:19.831Z,0.09
2022-11-18T13:07:30.610Z,0.02
2022-11-18T13:10:22.860Z,-0.03
2022-11-18T13:13:30.822Z,-0.13
2022-11-18T13:16:38.625Z,-0.25
2022-11-18T13:19:25.528Z,-0.32
2022-11-18T13:22:36.609Z,-0.40
2022-11-18T13:25:24.942Z,-0.47
2022-11-18T13:28:42.787Z,-0.46
2022-11-18T13:31:47.421Z,-0.41
2022-11-18T13:34:45.700Z,-0.37
2022-11-18T13:37:34.187Z,-0.36
2022-11-18T13:40:25.504Z,-0.43
2022-11-18T13:43:12.276Z,-0.47
2022-11-18T13:46:04.792Z,-0.53
2022-11-18T13:48:56.446Z,-0.57
2022-11-18T13:51:43.202Z,-0.62
2022-11-18T13:54:30.375Z,-0.68
2022-11-18T13:57:18.724Z,-0.71
2022-11-18T14:00:07.311Z,-0.75
2022-11-18T14:03:02.453Z,-0.76
2022-11-18T14:05:55.230Z,-0.74
2022-11-18T14:08:42.040Z,-0.76
2022-11-18T14:11:36.926Z,-0.81
2022-11-18T14:14:34.373Z,-0.82
2022-11-18T14:17:25.245Z,-0.87
2022-11-18T14:20:13.244Z,-0.90
2022-11-18T14:23:01.079Z,-0.94
2022-11-18T14:25:47.684Z,-0.99
2022-11-18T14:28:37.262Z,-1.04
2022-11-18T14:31:31.248Z,-1.11
2022-11-18T14:34:24.227Z,-1.15
2022-11-18T14:37:12.802Z,-1.16
2022-11-18T14:39:59.553Z,-1.18
2022-11-18T14:42:46.157Z,-1.19
2022-11-18T14:45:33.071Z,-1.21
2022-11-18T14:48:20.703Z,-1.22
2022-11-18T14:51:07.512Z,-1.24
2022-11-18T14:53:54.372Z,-1.25
2022-11-18T14:56:41.750Z,-1.25
2022-11-18T14:59:28.354Z,-1.19
2022-11-18T15:02:16.817Z,-1.15
2022-11-18T15:05:03.714Z,-1.11
2022-11-18T15:07:50.793Z,-1.10
2022-11-18T15:10:37.541Z,-1.12
2022-11-18T15:13:23.941Z,-1.15
2022-11-18T15:16:20.167Z,-1.19
2022-11-18T15:19:10.076Z,-1.27
2022-11-18T15:21:56.480Z,-1.31
2022-11-18T15:24:42.961Z,-1.34
2022-11-18T15:27:30.034Z,-1.35
2022-11-18T15:30:16.816Z,-1.37
2022-11-18T15:33:03.593Z,-1.37
2022-11-18T15:35:50.096Z,-1.38
2022-11-18T15:38:36.476Z,-1.38
2022-11-18T15:41:25.590Z,-1.37
2022-11-18T15:44:12.172Z,-1.38
2022-11-18T15:47:00.309Z,-1.41
2022-11-18T15:49:47.115Z,-1.42
2022-11-18T15:52:33.519Z,-1.42
2022-11-18T15:55:22.576Z,-1.43
2022-11-18T15:58:09.660Z,-1.46
2022-11-18T16:00:56.329Z,-1.48
2022-11-18T16:03:42.708Z,-1.49
2022-11-18T16:06:29.649Z,-1.50
2022-11-18T16:09:16.724Z,-1.49
2022-11-18T16:12:22.597Z,-1.50
2022-11-18T16:15:27.634Z,-1.52
2022-11-18T16:18:15.304Z,-1.54
2022-11-18T16:21:01.792Z,-1.58
2022-11-18T16:23:48.063Z,-1.60
2022-11-18T16:26:34.924Z,-1.60
2022-11-18T16:29:21.664Z,-1.60
2022-11-18T16:32:12.702Z,-1.61
2022-11-18T16:35:01.429Z,-1.60
2022-11-18T16:37:49.514Z,-1.61
2022-11-18T16:41:45.869Z,-1.63
2022-11-18T16:44:44.082Z,-1.67
2022-11-18T16:47:30.614Z,-1.71
2022-11-18T16:50:17.568Z,-1.66
2022-11-18T16:53:04.375Z,-1.57
2022-11-18T16:55:50.943Z,-1.44
2022-11-18T16:58:37.903Z,-1.40
2022-11-18T17:01:29.328Z,-1.29
2022-11-18T17:04:16.915Z,-1.22
2022-11-18T17:07:03.841Z,-1.15
2022-11-18T17:09:50.754Z,-1.13
2022-11-18T17:12:37.752Z,-1.14
2022-11-18T17:15:24.659Z,-1.18
2022-11-18T17:18:11.476Z,-1.17
2022-11-18T17:21:09.137Z,-1.20
2022-11-18T17:23:56.048Z,-1.27
2022-11-18T17:26:42.693Z,-1.31
2022-11-18T17:29:29.668Z,-1.34
2022-11-18T17:32:15.918Z,-1.38
2022-11-18T17:35:02.603Z,-1.39
2022-11-18T17:37:49.281Z,-1.39
2022-11-18T17:40:35.786Z,-1.38
2022-11-18T17:43:23.307Z,-1.37
2022-11-18T17:46:09.916Z,-1.39
2022-11-18T17:48:57.133Z,-1.39
2022-11-18T17:51:46.410Z,-1.39
2022-11-18T17:54:33.317Z,-1.37
2022-11-18T17:57:20.123Z,-1.35
2022-11-18T18:00:07.765Z,-1.33
2022-11-18T18:02:54.466Z,-1.32
2022-11-18T18:05:41.196Z,-1.30
2022-11-18T18:08:27.781Z,-1.29
2022-11-18T18:11:18.073Z,-1.27
2022-11-18T18:14:13.692Z,-1.25
2022-11-18T18:17:01.330Z,-1.24
2022-11-18T18:19:48.007Z,-1.18
2022-11-18T18:22:34.738Z,-1.06
2022-11-18T18:25:21.544Z,-0.95
2022-11-18T18:28:08.149Z,-0.85
2022-11-18T18:31:05.608Z,-0.74
2022-11-18T18:33:52.421Z,-0.72
2022-11-18T18:36:38.718Z,-0.70
2022-11-18T18:39:25.221Z,-0.71
2022-11-18T18:42:11.951Z,-0.77
2022-11-18T18:45:17.479Z,-0.79
2022-11-18T18:48:04.187Z,-0.79
2022-11-18T18:50:50.892Z,-0.79
2022-11-18T18:53:37.708Z,-0.80
2022-11-18T18:56:24.012Z,-0.80
2022-11-18T18:59:11.025Z,-0.80
2022-11-18T19:01:57.931Z,-0.81
2022-11-18T19:04:46.584Z,-0.85
2022-11-18T19:07:33.124Z,-0.85
2022-11-18T19:10:19.692Z,-0.86
2022-11-18T19:13:06.610Z,-0.87
2022-11-18T19:15:53.551Z,-0.87
2022-11-18T19:18:40.231Z,-0.88
2022-11-18T19:21:26.528Z,-0.87
2022-11-18T19:24:34.915Z,-0.88
2022-11-18T19:27:19.811Z,-0.87
2022-11-18T19:30:07.781Z,-0.88
2022-11-18T19:32:55.937Z,-0.88
2022-11-18T19:35:42.596Z,-0.88
2022-11-18T19:38:29.406Z,-0.89
2022-11-18T19:41:16.217Z,-0.90
2022-11-18T19:44:04.298Z,-0.87
2022-11-18T19:46:50.844Z,-0.79
2022-11-18T19:49:37.572Z,-0.69
2022-11-18T19:52:24.060Z,-0.58
2022-11-18T19:55:10.781Z,-0.51
2022-11-18T19:57:57.389Z,-0.46
2022-11-18T20:00:44.297Z,-0.44
2022-11-18T20:03:31.126Z,-0.43
2022-11-18T20:06:18.168Z,-0.47
2022-11-18T20:09:08.834Z,-0.47
2022-11-18T20:11:55.269Z,-0.51
2022-11-18T20:14:41.699Z,-0.53
2022-11-18T20:17:28.339Z,-0.56
2022-11-18T20:20:15.873Z,-0.61
2022-11-18T20:23:02.497Z,-0.65
2022-11-18T20:25:49.290Z,-0.69
2022-11-18T20:28:36.867Z,-0.71
2022-11-18T20:31:24.028Z,-0.72
2022-11-18T20:34:16.580Z,-0.74
2022-11-18T20:37:03.487Z,-0.76
2022-11-18T20:39:49.889Z,-0.78
2022-11-18T20:42:55.310Z,-0.78
2022-11-18T20:45:43.784Z,-0.72
2022-11-18T20:48:33.667Z,-0.66
2022-11-18T20:51:24.956Z,-0.60
2022-11-18T20:54:11.812Z,-0.56
2022-11-18T20:56:58.605Z,-0.52
2022-11-18T20:59:46.549Z,-0.52
2022-11-18T21:02:33.558Z,-0.51
2022-11-18T21:05:19.904Z,-0.50
2022-11-18T21:08:07.902Z,-0.48
2022-11-18T21:10:54.399Z,-0.48
2022-11-18T21:13:59.599Z,-0.50
2022-11-18T21:16:46.554Z,-0.52
2022-11-18T21:19:34.026Z,-0.54
2022-11-18T21:22:20.687Z,-0.56
2022-11-18T21:25:07.802Z,-0.58
2022-11-18T21:27:54.303Z,-0.60
2022-11-18T21:30:41.321Z,-0.61
2022-11-18T21:33:28.115Z,-0.63
2022-11-18T21:36:14.635Z,-0.66
2022-11-18T21:39:01.832Z,-0.67
2022-11-18T21:41:53.664Z,-0.69
2022-11-18T21:44:42.084Z,-0.68
2022-11-18T21:47:28.945Z,-0.65
2022-11-18T21:50:16.163Z,-0.58
2022-11-18T21:53:03.078Z,-0.50
2022-11-18T21:55:49.790Z,-0.45
2022-11-18T21:58:37.313Z,-0.44
2022-11-18T22:01:26.035Z,-0.47
2022-11-18T22:04:32.914Z,-0.49
2022-11-18T22:07:22.971Z,-0.51
2022-11-18T22:10:10.050Z,-0.54
2022-11-18T22:12:56.552Z,-0.54
2022-11-18T22:15:43.468Z,-0.59
2022-11-18T22:18:31.405Z,-0.64
2022-11-18T22:21:19.648Z,-0.70
2022-11-18T22:24:06.871Z,-0.76
2022-11-18T22:26:53.783Z,-0.80
2022-11-18T22:29:40.080Z,-0.87
2022-11-18T22:32:26.482Z,-0.93
2022-11-18T22:35:13.237Z,-0.93
2022-11-18T22:37:59.911Z,-0.92
2022-11-18T22:40:46.400Z,-0.89
2022-11-18T22:43:33.934Z,-0.89
2022-11-18T22:46:20.636Z,-0.89
2022-11-18T22:49:07.751Z,-0.90
2022-11-18T22:51:54.677Z,-0.95
2022-11-18T22:54:41.380Z,-1.05
2022-11-18T22:57:33.408Z,-1.15
2022-11-18T23:00:20.355Z,-1.23
2022-11-18T23:03:06.929Z,-1.32
2022-11-18T23:05:53.415Z,-1.40
2022-11-18T23:08:41.477Z,-1.48
2022-11-18T23:11:47.223Z,-1.56
2022-11-18T23:14:33.582Z,-1.62
2022-11-18T23:17:20.333Z,-1.69
2022-11-18T23:20:08.166Z,-1.76
2022-11-18T23:22:54.978Z,-1.82
2022-11-18T23:25:41.581Z,-1.88
2022-11-18T23:28:28.395Z,-1.94
2022-11-18T23:31:16.639Z,-2.03
2022-11-18T23:34:03.049Z,-2.14
2022-11-18T23:36:49.739Z,-2.24
2022-11-18T23:39:37.401Z,-2.31
2022-11-18T23:42:24.526Z,-2.41
2022-11-18T23:45:11.396Z,-2.50
2022-11-18T23:47:57.812Z,-2.56
2022-11-18T23:50:58.140Z,-2.63
2022-11-18T23:53:45.293Z,-2.68
2022-11-18T23:56:37.757Z,-2.73
2022-11-18T23:59:24.923Z,-2.81
